sensor_id;sensor_type;location;lat;lon;timestamp;P1;durP1;ratioP1;P2;durP2;ratioP2
18102;SDS011;9178;51.120;6.192;2024-01-11T00:00:22;30.60;;;15.20;;
18102;SDS011;9178;51.120;6.192;2024-01-11T00:02:49;34.73;;;15.30;;
18102;SDS011;9178;51.120;6.192;2024-01-11T00:05:16;34.13;;;15.90;;
18102;SDS011;9178;51.120;6.192;2024-01-11T00:07:43;29.43;;;14.57;;
18102;SDS011;9178;51.120;6.192;2024-01-11T00:10:10;31.47;;;15.33;;
18102;SDS011;9178;51.120;6.192;2024-01-11T00:12:42;28.93;;;15.00;;
18102;SDS011;9178;51.120;6.192;2024-01-11T00:15:10;31.60;;;16.03;;
18102;SDS011;9178;51.120;6.192;2024-01-11T00:17:37;33.10;;;15.00;;
18102;SDS011;9178;51.120;6.192;2024-01-11T00:20:05;33.40;;;15.27;;
18102;SDS011;9178;51.120;6.192;2024-01-11T00:22:39;33.17;;;15.07;;
18102;SDS011;9178;51.120;6.192;2024-01-11T00:25:07;30.47;;;15.13;;
18102;SDS011;9178;51.120;6.192;2024-01-11T00:27:34;34.97;;;15.87;;
18102;SDS011;9178;51.120;6.192;2024-01-11T00:30:04;31.23;;;15.03;;
18102;SDS011;9178;51.120;6.192;2024-01-11T00:32:34;31.73;;;15.87;;
18102;SDS011;9178;51.120;6.192;2024-01-11T00:35:01;29.57;;;15.33;;
18102;SDS011;9178;51.120;6.192;2024-01-11T00:37:29;29.67;;;14.37;;
18102;SDS011;9178;51.120;6.192;2024-01-11T00:39:56;31.00;;;15.23;;
18102;SDS011;9178;51.120;6.192;2024-01-11T00:42:23;33.17;;;16.07;;
18102;SDS011;9178;51.120;6.192;2024-01-11T00:44:50;30.83;;;15.27;;
18102;SDS011;9178;51.120;6.192;2024-01-11T00:47:19;32.70;;;16.07;;
18102;SDS011;9178;51.120;6.192;2024-01-11T00:49:46;32.87;;;16.40;;
18102;SDS011;9178;51.120;6.192;2024-01-11T00:52:14;32.87;;;15.57;;
18102;SDS011;9178;51.120;6.192;2024-01-11T00:54:41;33.77;;;17.60;;
18102;SDS011;9178;51.120;6.192;2024-01-11T00:57:10;34.93;;;16.60;;
18102;SDS011;9178;51.120;6.192;2024-01-11T00:59:37;33.73;;;16.83;;
18102;SDS011;9178;51.120;6.192;2024-01-11T01:02:06;40.03;;;17.30;;
18102;SDS011;9178;51.120;6.192;2024-01-11T01:04:35;37.80;;;16.33;;
18102;SDS011;9178;51.120;6.192;2024-01-11T01:07:07;35.90;;;16.70;;
18102;SDS011;9178;51.120;6.192;2024-01-11T01:09:34;31.50;;;15.50;;
18102;SDS011;9178;51.120;6.192;2024-01-11T01:12:01;37.13;;;16.27;;
18102;SDS011;9178;51.120;6.192;2024-01-11T01:14:29;32.63;;;15.83;;
18102;SDS011;9178;51.120;6.192;2024-01-11T01:16:57;35.87;;;17.00;;
18102;SDS011;9178;51.120;6.192;2024-01-11T01:19:26;35.70;;;17.17;;
18102;SDS011;9178;51.120;6.192;2024-01-11T01:21:55;41.50;;;18.03;;
18102;SDS011;9178;51.120;6.192;2024-01-11T01:24:22;37.67;;;17.23;;
18102;SDS011;9178;51.120;6.192;2024-01-11T01:26:49;34.87;;;16.70;;
18102;SDS011;9178;51.120;6.192;2024-01-11T01:29:16;41.17;;;18.13;;
18102;SDS011;9178;51.120;6.192;2024-01-11T01:31:44;34.97;;;16.80;;
18102;SDS011;9178;51.120;6.192;2024-01-11T01:34:11;38.63;;;18.50;;
18102;SDS011;9178;51.120;6.192;2024-01-11T01:36:40;36.67;;;18.77;;
18102;SDS011;9178;51.120;6.192;2024-01-11T01:39:08;35.10;;;18.93;;
18102;SDS011;9178;51.120;6.192;2024-01-11T01:41:35;40.87;;;19.70;;
18102;SDS011;9178;51.120;6.192;2024-01-11T01:44:02;41.53;;;19.20;;
18102;SDS011;9178;51.120;6.192;2024-01-11T01:46:30;32.63;;;18.00;;
18102;SDS011;9178;51.120;6.192;2024-01-11T01:48:59;34.80;;;17.20;;
18102;SDS011;9178;51.120;6.192;2024-01-11T01:51:31;35.83;;;17.80;;
18102;SDS011;9178;51.120;6.192;2024-01-11T01:53:59;33.20;;;16.87;;
18102;SDS011;9178;51.120;6.192;2024-01-11T01:56:29;36.83;;;18.10;;
18102;SDS011;9178;51.120;6.192;2024-01-11T01:58:56;34.73;;;17.13;;
18102;SDS011;9178;51.120;6.192;2024-01-11T02:01:27;39.17;;;17.47;;
18102;SDS011;9178;51.120;6.192;2024-01-11T02:03:54;38.03;;;17.80;;
18102;SDS011;9178;51.120;6.192;2024-01-11T02:06:23;36.37;;;17.70;;
18102;SDS011;9178;51.120;6.192;2024-01-11T02:08:54;34.70;;;17.13;;
18102;SDS011;9178;51.120;6.192;2024-01-11T02:11:22;33.47;;;16.50;;
18102;SDS011;9178;51.120;6.192;2024-01-11T02:13:52;36.47;;;17.13;;
18102;SDS011;9178;51.120;6.192;2024-01-11T02:16:19;31.30;;;16.57;;
18102;SDS011;9178;51.120;6.192;2024-01-11T02:18:47;32.47;;;17.33;;
18102;SDS011;9178;51.120;6.192;2024-01-11T02:21:14;33.23;;;16.70;;
18102;SDS011;9178;51.120;6.192;2024-01-11T02:23:43;39.77;;;17.17;;
18102;SDS011;9178;51.120;6.192;2024-01-11T02:26:14;40.23;;;17.40;;
18102;SDS011;9178;51.120;6.192;2024-01-11T02:28:44;37.50;;;17.20;;
18102;SDS011;9178;51.120;6.192;2024-01-11T02:31:12;38.37;;;18.30;;
18102;SDS011;9178;51.120;6.192;2024-01-11T02:33:40;35.10;;;16.80;;
18102;SDS011;9178;51.120;6.192;2024-01-11T02:36:08;35.33;;;17.23;;
18102;SDS011;9178;51.120;6.192;2024-01-11T02:38:36;35.80;;;16.60;;
18102;SDS011;9178;51.120;6.192;2024-01-11T02:41:04;36.77;;;17.90;;
18102;SDS011;9178;51.120;6.192;2024-01-11T02:43:36;36.97;;;16.87;;
18102;SDS011;9178;51.120;6.192;2024-01-11T02:46:04;37.23;;;17.53;;
18102;SDS011;9178;51.120;6.192;2024-01-11T02:48:31;35.80;;;16.80;;
18102;SDS011;9178;51.120;6.192;2024-01-11T02:51:01;36.47;;;17.00;;
18102;SDS011;9178;51.120;6.192;2024-01-11T02:53:28;33.20;;;17.60;;
18102;SDS011;9178;51.120;6.192;2024-01-11T02:55:59;38.93;;;16.53;;
18102;SDS011;9178;51.120;6.192;2024-01-11T02:58:31;37.27;;;18.77;;
18102;SDS011;9178;51.120;6.192;2024-01-11T03:01:00;36.00;;;16.83;;
18102;SDS011;9178;51.120;6.192;2024-01-11T03:03:29;35.07;;;17.43;;
18102;SDS011;9178;51.120;6.192;2024-01-11T03:06:03;37.00;;;16.63;;
18102;SDS011;9178;51.120;6.192;2024-01-11T03:08:30;37.13;;;17.33;;
18102;SDS011;9178;51.120;6.192;2024-01-11T03:10:59;36.67;;;17.03;;
18102;SDS011;9178;51.120;6.192;2024-01-11T03:13:26;37.67;;;18.83;;
18102;SDS011;9178;51.120;6.192;2024-01-11T03:15:53;45.73;;;18.97;;
18102;SDS011;9178;51.120;6.192;2024-01-11T03:18:22;39.53;;;18.23;;
18102;SDS011;9178;51.120;6.192;2024-01-11T03:20:49;36.80;;;19.10;;
18102;SDS011;9178;51.120;6.192;2024-01-11T03:23:22;38.63;;;19.13;;
18102;SDS011;9178;51.120;6.192;2024-01-11T03:25:53;46.50;;;19.70;;
18102;SDS011;9178;51.120;6.192;2024-01-11T03:28:22;38.57;;;18.13;;
18102;SDS011;9178;51.120;6.192;2024-01-11T03:30:51;35.67;;;18.03;;
18102;SDS011;9178;51.120;6.192;2024-01-11T03:33:19;40.43;;;18.37;;
18102;SDS011;9178;51.120;6.192;2024-01-11T03:35:56;32.70;;;17.00;;
18102;SDS011;9178;51.120;6.192;2024-01-11T03:38:26;34.87;;;17.27;;
18102;SDS011;9178;51.120;6.192;2024-01-11T03:40:53;36.70;;;17.47;;
18102;SDS011;9178;51.120;6.192;2024-01-11T03:43:20;37.27;;;18.20;;
18102;SDS011;9178;51.120;6.192;2024-01-11T03:45:47;36.43;;;18.30;;
18102;SDS011;9178;51.120;6.192;2024-01-11T03:48:14;37.07;;;18.13;;
18102;SDS011;9178;51.120;6.192;2024-01-11T03:50:41;38.93;;;18.07;;
18102;SDS011;9178;51.120;6.192;2024-01-11T03:53:11;34.83;;;17.13;;
18102;SDS011;9178;51.120;6.192;2024-01-11T03:55:40;35.50;;;16.07;;
18102;SDS011;9178;51.120;6.192;2024-01-11T03:58:09;39.27;;;17.33;;
18102;SDS011;9178;51.120;6.192;2024-01-11T04:00:36;39.80;;;18.50;;
18102;SDS011;9178;51.120;6.192;2024-01-11T04:03:03;40.90;;;18.40;;
18102;SDS011;9178;51.120;6.192;2024-01-11T04:05:32;35.13;;;17.50;;
18102;SDS011;9178;51.120;6.192;2024-01-11T04:08:03;36.37;;;17.60;;
18102;SDS011;9178;51.120;6.192;2024-01-11T04:10:32;37.80;;;17.70;;
18102;SDS011;9178;51.120;6.192;2024-01-11T04:13:00;43.70;;;20.23;;
18102;SDS011;9178;51.120;6.192;2024-01-11T04:15:27;53.63;;;26.07;;
18102;SDS011;9178;51.120;6.192;2024-01-11T04:17:56;39.90;;;20.30;;
18102;SDS011;9178;51.120;6.192;2024-01-11T04:20:23;41.73;;;20.77;;
18102;SDS011;9178;51.120;6.192;2024-01-11T04:22:50;42.00;;;20.63;;
18102;SDS011;9178;51.120;6.192;2024-01-11T04:25:17;44.77;;;21.27;;
18102;SDS011;9178;51.120;6.192;2024-01-11T04:27:47;44.93;;;20.50;;
18102;SDS011;9178;51.120;6.192;2024-01-11T04:30:14;37.90;;;18.67;;
18102;SDS011;9178;51.120;6.192;2024-01-11T04:32:41;43.17;;;19.07;;
18102;SDS011;9178;51.120;6.192;2024-01-11T04:35:08;42.47;;;18.93;;
18102;SDS011;9178;51.120;6.192;2024-01-11T04:37:35;38.23;;;19.07;;
18102;SDS011;9178;51.120;6.192;2024-01-11T04:40:02;45.50;;;20.53;;
18102;SDS011;9178;51.120;6.192;2024-01-11T04:42:33;42.50;;;20.03;;
18102;SDS011;9178;51.120;6.192;2024-01-11T04:45:04;39.53;;;19.40;;
18102;SDS011;9178;51.120;6.192;2024-01-11T04:47:32;43.63;;;19.03;;
18102;SDS011;9178;51.120;6.192;2024-01-11T04:49:59;40.67;;;18.97;;
18102;SDS011;9178;51.120;6.192;2024-01-11T04:52:26;37.90;;;18.30;;
18102;SDS011;9178;51.120;6.192;2024-01-11T04:54:53;43.83;;;20.13;;
18102;SDS011;9178;51.120;6.192;2024-01-11T04:57:20;42.43;;;20.30;;
18102;SDS011;9178;51.120;6.192;2024-01-11T04:59:48;39.73;;;19.60;;
18102;SDS011;9178;51.120;6.192;2024-01-11T05:02:16;45.20;;;19.50;;
18102;SDS011;9178;51.120;6.192;2024-01-11T05:04:43;36.83;;;19.03;;
18102;SDS011;9178;51.120;6.192;2024-01-11T05:07:10;44.57;;;19.60;;
18102;SDS011;9178;51.120;6.192;2024-01-11T05:09:37;40.30;;;19.40;;
18102;SDS011;9178;51.120;6.192;2024-01-11T05:12:05;43.90;;;20.40;;
18102;SDS011;9178;51.120;6.192;2024-01-11T05:14:33;45.73;;;20.60;;
18102;SDS011;9178;51.120;6.192;2024-01-11T05:17:00;42.27;;;18.57;;
18102;SDS011;9178;51.120;6.192;2024-01-11T05:19:31;44.00;;;19.77;;
18102;SDS011;9178;51.120;6.192;2024-01-11T05:21:58;42.63;;;20.20;;
18102;SDS011;9178;51.120;6.192;2024-01-11T05:24:25;41.77;;;20.30;;
18102;SDS011;9178;51.120;6.192;2024-01-11T05:26:53;40.77;;;20.00;;
18102;SDS011;9178;51.120;6.192;2024-01-11T05:29:20;42.30;;;19.77;;
18102;SDS011;9178;51.120;6.192;2024-01-11T05:31:47;41.80;;;19.53;;
18102;SDS011;9178;51.120;6.192;2024-01-11T05:34:17;45.70;;;19.63;;
18102;SDS011;9178;51.120;6.192;2024-01-11T05:36:45;40.87;;;18.47;;
18102;SDS011;9178;51.120;6.192;2024-01-11T05:39:13;42.00;;;19.83;;
18102;SDS011;9178;51.120;6.192;2024-01-11T05:41:43;44.17;;;20.40;;
18102;SDS011;9178;51.120;6.192;2024-01-11T05:44:10;44.10;;;19.27;;
18102;SDS011;9178;51.120;6.192;2024-01-11T05:46:37;46.60;;;20.03;;
18102;SDS011;9178;51.120;6.192;2024-01-11T05:49:04;42.00;;;19.90;;
18102;SDS011;9178;51.120;6.192;2024-01-11T05:51:32;48.03;;;20.70;;
18102;SDS011;9178;51.120;6.192;2024-01-11T05:54:01;43.07;;;20.07;;
18102;SDS011;9178;51.120;6.192;2024-01-11T05:56:28;44.83;;;20.03;;
18102;SDS011;9178;51.120;6.192;2024-01-11T05:58:55;40.37;;;18.53;;
18102;SDS011;9178;51.120;6.192;2024-01-11T06:01:23;41.70;;;19.00;;
18102;SDS011;9178;51.120;6.192;2024-01-11T06:03:50;41.60;;;19.23;;
18102;SDS011;9178;51.120;6.192;2024-01-11T06:06:17;43.60;;;19.30;;
18102;SDS011;9178;51.120;6.192;2024-01-11T06:08:45;42.30;;;18.90;;
18102;SDS011;9178;51.120;6.192;2024-01-11T06:11:15;39.17;;;18.47;;
18102;SDS011;9178;51.120;6.192;2024-01-11T06:13:43;37.87;;;19.27;;
18102;SDS011;9178;51.120;6.192;2024-01-11T06:16:10;40.60;;;17.80;;
18102;SDS011;9178;51.120;6.192;2024-01-11T06:18:37;43.63;;;19.57;;
18102;SDS011;9178;51.120;6.192;2024-01-11T06:21:04;45.97;;;20.33;;
18102;SDS011;9178;51.120;6.192;2024-01-11T06:23:31;45.17;;;19.67;;
18102;SDS011;9178;51.120;6.192;2024-01-11T06:25:58;52.33;;;21.90;;
18102;SDS011;9178;51.120;6.192;2024-01-11T06:28:27;40.33;;;19.60;;
18102;SDS011;9178;51.120;6.192;2024-01-11T06:30:54;42.17;;;20.80;;
18102;SDS011;9178;51.120;6.192;2024-01-11T06:33:22;44.23;;;20.20;;
18102;SDS011;9178;51.120;6.192;2024-01-11T06:35:50;43.80;;;20.10;;
18102;SDS011;9178;51.120;6.192;2024-01-11T06:38:17;44.17;;;20.43;;
18102;SDS011;9178;51.120;6.192;2024-01-11T06:40:45;45.23;;;19.83;;
18102;SDS011;9178;51.120;6.192;2024-01-11T06:43:12;42.80;;;21.43;;
18102;SDS011;9178;51.120;6.192;2024-01-11T06:45:41;48.40;;;21.10;;
18102;SDS011;9178;51.120;6.192;2024-01-11T06:48:09;50.70;;;23.70;;
18102;SDS011;9178;51.120;6.192;2024-01-11T06:50:36;44.33;;;19.37;;
18102;SDS011;9178;51.120;6.192;2024-01-11T06:53:03;51.17;;;20.73;;
18102;SDS011;9178;51.120;6.192;2024-01-11T06:55:30;48.83;;;19.57;;
18102;SDS011;9178;51.120;6.192;2024-01-11T06:58:01;42.70;;;19.43;;
18102;SDS011;9178;51.120;6.192;2024-01-11T07:00:28;41.50;;;19.43;;
18102;SDS011;9178;51.120;6.192;2024-01-11T07:03:04;46.00;;;21.10;;
18102;SDS011;9178;51.120;6.192;2024-01-11T07:05:31;44.93;;;20.63;;
18102;SDS011;9178;51.120;6.192;2024-01-11T07:07:58;41.47;;;19.47;;
18102;SDS011;9178;51.120;6.192;2024-01-11T07:10:25;42.00;;;19.80;;
18102;SDS011;9178;51.120;6.192;2024-01-11T07:12:57;46.20;;;18.80;;
18102;SDS011;9178;51.120;6.192;2024-01-11T07:15:24;45.37;;;20.13;;
18102;SDS011;9178;51.120;6.192;2024-01-11T07:17:51;42.20;;;20.10;;
18102;SDS011;9178;51.120;6.192;2024-01-11T07:20:22;40.43;;;20.33;;
18102;SDS011;9178;51.120;6.192;2024-01-11T07:22:49;43.87;;;19.83;;
18102;SDS011;9178;51.120;6.192;2024-01-11T07:25:17;44.13;;;20.47;;
18102;SDS011;9178;51.120;6.192;2024-01-11T07:27:44;46.63;;;21.03;;
18102;SDS011;9178;51.120;6.192;2024-01-11T07:30:11;46.83;;;21.53;;
18102;SDS011;9178;51.120;6.192;2024-01-11T07:32:42;41.30;;;20.57;;
18102;SDS011;9178;51.120;6.192;2024-01-11T07:35:10;46.53;;;20.80;;
18102;SDS011;9178;51.120;6.192;2024-01-11T07:37:41;45.33;;;19.57;;
18102;SDS011;9178;51.120;6.192;2024-01-11T07:40:09;48.03;;;21.00;;
18102;SDS011;9178;51.120;6.192;2024-01-11T07:42:37;45.70;;;20.87;;
18102;SDS011;9178;51.120;6.192;2024-01-11T07:45:04;46.77;;;20.80;;
18102;SDS011;9178;51.120;6.192;2024-01-11T07:47:35;47.17;;;19.27;;
18102;SDS011;9178;51.120;6.192;2024-01-11T07:50:02;47.10;;;21.70;;
18102;SDS011;9178;51.120;6.192;2024-01-11T07:52:31;46.03;;;21.33;;
18102;SDS011;9178;51.120;6.192;2024-01-11T07:55:01;44.30;;;20.10;;
18102;SDS011;9178;51.120;6.192;2024-01-11T07:57:32;47.10;;;20.23;;
18102;SDS011;9178;51.120;6.192;2024-01-11T08:00:00;48.23;;;20.80;;
18102;SDS011;9178;51.120;6.192;2024-01-11T08:02:28;49.23;;;21.33;;
18102;SDS011;9178;51.120;6.192;2024-01-11T08:04:58;46.67;;;21.67;;
18102;SDS011;9178;51.120;6.192;2024-01-11T08:07:26;45.00;;;21.07;;
18102;SDS011;9178;51.120;6.192;2024-01-11T08:09:53;50.63;;;21.53;;
18102;SDS011;9178;51.120;6.192;2024-01-11T08:12:21;50.53;;;23.57;;
18102;SDS011;9178;51.120;6.192;2024-01-11T08:14:50;45.50;;;20.97;;
18102;SDS011;9178;51.120;6.192;2024-01-11T08:17:16;47.50;;;21.30;;
18102;SDS011;9178;51.120;6.192;2024-01-11T08:19:45;49.43;;;21.83;;
18102;SDS011;9178;51.120;6.192;2024-01-11T08:22:12;44.40;;;21.83;;
18102;SDS011;9178;51.120;6.192;2024-01-11T08:24:40;51.23;;;21.80;;
18102;SDS011;9178;51.120;6.192;2024-01-11T08:27:07;48.43;;;21.57;;
18102;SDS011;9178;51.120;6.192;2024-01-11T08:29:36;45.77;;;21.33;;
18102;SDS011;9178;51.120;6.192;2024-01-11T08:32:03;45.50;;;21.87;;
18102;SDS011;9178;51.120;6.192;2024-01-11T08:34:47;41.70;;;19.70;;
18102;SDS011;9178;51.120;6.192;2024-01-11T08:37:19;51.73;;;21.53;;
18102;SDS011;9178;51.120;6.192;2024-01-11T08:39:46;48.53;;;21.20;;
18102;SDS011;9178;51.120;6.192;2024-01-11T08:42:14;55.60;;;22.70;;
18102;SDS011;9178;51.120;6.192;2024-01-11T08:44:43;56.03;;;24.67;;
18102;SDS011;9178;51.120;6.192;2024-01-11T08:47:10;52.07;;;24.57;;
18102;SDS011;9178;51.120;6.192;2024-01-11T08:49:40;51.13;;;22.83;;
18102;SDS011;9178;51.120;6.192;2024-01-11T08:52:08;55.97;;;23.53;;
18102;SDS011;9178;51.120;6.192;2024-01-11T08:54:35;51.37;;;24.87;;
18102;SDS011;9178;51.120;6.192;2024-01-11T08:57:02;54.23;;;25.77;;
18102;SDS011;9178;51.120;6.192;2024-01-11T08:59:30;52.33;;;23.53;;
18102;SDS011;9178;51.120;6.192;2024-01-11T09:01:59;50.17;;;24.70;;
18102;SDS011;9178;51.120;6.192;2024-01-11T09:04:26;51.97;;;25.43;;
18102;SDS011;9178;51.120;6.192;2024-01-11T09:06:54;59.70;;;26.47;;
18102;SDS011;9178;51.120;6.192;2024-01-11T09:09:23;49.73;;;25.20;;
18102;SDS011;9178;51.120;6.192;2024-01-11T09:11:51;50.13;;;23.43;;
18102;SDS011;9178;51.120;6.192;2024-01-11T09:14:21;49.97;;;24.90;;
18102;SDS011;9178;51.120;6.192;2024-01-11T09:16:49;53.67;;;25.10;;
18102;SDS011;9178;51.120;6.192;2024-01-11T09:19:17;48.33;;;23.47;;
18102;SDS011;9178;51.120;6.192;2024-01-11T09:21:45;41.83;;;22.17;;
18102;SDS011;9178;51.120;6.192;2024-01-11T09:24:13;45.13;;;23.47;;
18102;SDS011;9178;51.120;6.192;2024-01-11T09:26:40;41.90;;;21.83;;
18102;SDS011;9178;51.120;6.192;2024-01-11T09:29:07;41.07;;;21.53;;
18102;SDS011;9178;51.120;6.192;2024-01-11T09:31:34;39.63;;;21.00;;
18102;SDS011;9178;51.120;6.192;2024-01-11T09:34:01;45.33;;;22.93;;
18102;SDS011;9178;51.120;6.192;2024-01-11T09:36:29;41.93;;;21.50;;
18102;SDS011;9178;51.120;6.192;2024-01-11T09:39:03;40.03;;;21.37;;
18102;SDS011;9178;51.120;6.192;2024-01-11T09:41:30;43.57;;;22.27;;
18102;SDS011;9178;51.120;6.192;2024-01-11T09:44:06;47.23;;;22.97;;
18102;SDS011;9178;51.120;6.192;2024-01-11T09:46:34;42.77;;;22.20;;
18102;SDS011;9178;51.120;6.192;2024-01-11T09:49:01;42.83;;;22.90;;
18102;SDS011;9178;51.120;6.192;2024-01-11T09:51:31;43.37;;;22.57;;
18102;SDS011;9178;51.120;6.192;2024-01-11T09:54:03;47.63;;;22.63;;
18102;SDS011;9178;51.120;6.192;2024-01-11T09:56:32;44.70;;;22.93;;
18102;SDS011;9178;51.120;6.192;2024-01-11T09:59:05;46.60;;;22.93;;
18102;SDS011;9178;51.120;6.192;2024-01-11T10:01:35;40.37;;;21.63;;
18102;SDS011;9178;51.120;6.192;2024-01-11T10:04:03;42.53;;;21.60;;
18102;SDS011;9178;51.120;6.192;2024-01-11T10:06:32;41.33;;;21.03;;
18102;SDS011;9178;51.120;6.192;2024-01-11T10:09:03;43.67;;;21.30;;
18102;SDS011;9178;51.120;6.192;2024-01-11T10:11:30;43.83;;;22.30;;
18102;SDS011;9178;51.120;6.192;2024-01-11T10:13:59;41.87;;;21.67;;
18102;SDS011;9178;51.120;6.192;2024-01-11T10:16:30;47.67;;;22.40;;
18102;SDS011;9178;51.120;6.192;2024-01-11T10:18:57;41.87;;;21.37;;
18102;SDS011;9178;51.120;6.192;2024-01-11T10:21:24;38.47;;;21.17;;
18102;SDS011;9178;51.120;6.192;2024-01-11T10:23:56;40.03;;;20.90;;
18102;SDS011;9178;51.120;6.192;2024-01-11T10:26:30;43.40;;;21.80;;
18102;SDS011;9178;51.120;6.192;2024-01-11T10:29:01;41.90;;;21.70;;
18102;SDS011;9178;51.120;6.192;2024-01-11T10:31:31;48.70;;;21.93;;
18102;SDS011;9178;51.120;6.192;2024-01-11T10:33:59;42.37;;;21.53;;
18102;SDS011;9178;51.120;6.192;2024-01-11T10:36:26;43.00;;;20.67;;
18102;SDS011;9178;51.120;6.192;2024-01-11T10:38:58;38.37;;;20.50;;
18102;SDS011;9178;51.120;6.192;2024-01-11T10:41:32;35.53;;;20.10;;
18102;SDS011;9178;51.120;6.192;2024-01-11T10:44:05;38.47;;;20.77;;
18102;SDS011;9178;51.120;6.192;2024-01-11T10:46:40;38.93;;;20.83;;
18102;SDS011;9178;51.120;6.192;2024-01-11T10:49:08;36.57;;;20.50;;
18102;SDS011;9178;51.120;6.192;2024-01-11T10:51:38;39.27;;;20.93;;
18102;SDS011;9178;51.120;6.192;2024-01-11T10:54:07;35.17;;;20.50;;
18102;SDS011;9178;51.120;6.192;2024-01-11T10:56:34;33.03;;;19.03;;
18102;SDS011;9178;51.120;6.192;2024-01-11T10:59:08;40.23;;;20.40;;
18102;SDS011;9178;51.120;6.192;2024-01-11T11:01:36;38.00;;;20.37;;
18102;SDS011;9178;51.120;6.192;2024-01-11T11:04:05;39.23;;;21.57;;
18102;SDS011;9178;51.120;6.192;2024-01-11T11:06:34;40.67;;;23.70;;
18102;SDS011;9178;51.120;6.192;2024-01-11T11:09:07;35.10;;;20.27;;
18102;SDS011;9178;51.120;6.192;2024-01-11T11:11:37;30.40;;;19.73;;
18102;SDS011;9178;51.120;6.192;2024-01-11T11:14:05;34.40;;;19.30;;
18102;SDS011;9178;51.120;6.192;2024-01-11T11:16:33;35.63;;;20.43;;
18102;SDS011;9178;51.120;6.192;2024-01-11T11:19:01;35.70;;;19.93;;
18102;SDS011;9178;51.120;6.192;2024-01-11T11:21:28;32.13;;;19.30;;
18102;SDS011;9178;51.120;6.192;2024-01-11T11:23:55;34.53;;;19.93;;
18102;SDS011;9178;51.120;6.192;2024-01-11T11:26:25;28.43;;;18.07;;
18102;SDS011;9178;51.120;6.192;2024-01-11T11:28:53;31.47;;;18.77;;
18102;SDS011;9178;51.120;6.192;2024-01-11T11:31:34;32.63;;;19.77;;
18102;SDS011;9178;51.120;6.192;2024-01-11T11:34:03;36.43;;;20.47;;
18102;SDS011;9178;51.120;6.192;2024-01-11T11:36:31;34.07;;;19.57;;
18102;SDS011;9178;51.120;6.192;2024-01-11T11:39:00;30.97;;;19.37;;
18102;SDS011;9178;51.120;6.192;2024-01-11T11:41:31;30.27;;;18.07;;
18102;SDS011;9178;51.120;6.192;2024-01-11T11:44:01;32.40;;;19.53;;
18102;SDS011;9178;51.120;6.192;2024-01-11T11:46:30;32.50;;;19.37;;
18102;SDS011;9178;51.120;6.192;2024-01-11T11:48:59;31.13;;;18.27;;
18102;SDS011;9178;51.120;6.192;2024-01-11T11:51:28;32.90;;;18.70;;
18102;SDS011;9178;51.120;6.192;2024-01-11T11:53:55;30.53;;;18.40;;
18102;SDS011;9178;51.120;6.192;2024-01-11T11:56:24;29.67;;;17.97;;
18102;SDS011;9178;51.120;6.192;2024-01-11T11:58:53;30.67;;;16.97;;
18102;SDS011;9178;51.120;6.192;2024-01-11T12:01:20;30.73;;;17.40;;
18102;SDS011;9178;51.120;6.192;2024-01-11T12:03:48;33.80;;;18.37;;
18102;SDS011;9178;51.120;6.192;2024-01-11T12:06:16;27.90;;;17.83;;
18102;SDS011;9178;51.120;6.192;2024-01-11T12:08:46;31.20;;;18.03;;
18102;SDS011;9178;51.120;6.192;2024-01-11T12:11:17;32.53;;;18.77;;
18102;SDS011;9178;51.120;6.192;2024-01-11T12:13:48;30.03;;;18.30;;
18102;SDS011;9178;51.120;6.192;2024-01-11T12:16:19;29.57;;;17.97;;
18102;SDS011;9178;51.120;6.192;2024-01-11T12:18:48;32.10;;;18.27;;
18102;SDS011;9178;51.120;6.192;2024-01-11T12:21:15;27.87;;;17.47;;
18102;SDS011;9178;51.120;6.192;2024-01-11T12:23:43;35.43;;;20.37;;
18102;SDS011;9178;51.120;6.192;2024-01-11T12:26:10;30.17;;;18.13;;
18102;SDS011;9178;51.120;6.192;2024-01-11T12:28:39;29.47;;;17.40;;
18102;SDS011;9178;51.120;6.192;2024-01-11T12:31:07;30.07;;;17.43;;
18102;SDS011;9178;51.120;6.192;2024-01-11T12:33:36;29.07;;;18.23;;
18102;SDS011;9178;51.120;6.192;2024-01-11T12:36:05;34.20;;;18.47;;
18102;SDS011;9178;51.120;6.192;2024-01-11T12:38:34;31.43;;;18.00;;
18102;SDS011;9178;51.120;6.192;2024-01-11T12:41:01;44.20;;;22.03;;
18102;SDS011;9178;51.120;6.192;2024-01-11T12:43:30;35.30;;;19.17;;
18102;SDS011;9178;51.120;6.192;2024-01-11T12:45:59;35.33;;;19.13;;
18102;SDS011;9178;51.120;6.192;2024-01-11T12:48:27;41.87;;;21.73;;
18102;SDS011;9178;51.120;6.192;2024-01-11T12:50:57;31.30;;;17.63;;
18102;SDS011;9178;51.120;6.192;2024-01-11T12:53:24;35.70;;;19.50;;
18102;SDS011;9178;51.120;6.192;2024-01-11T12:56:02;44.20;;;21.67;;
18102;SDS011;9178;51.120;6.192;2024-01-11T12:58:33;30.53;;;17.60;;
18102;SDS011;9178;51.120;6.192;2024-01-11T13:01:00;26.77;;;15.87;;
18102;SDS011;9178;51.120;6.192;2024-01-11T13:03:28;31.43;;;17.30;;
18102;SDS011;9178;51.120;6.192;2024-01-11T13:05:57;25.70;;;15.90;;
18102;SDS011;9178;51.120;6.192;2024-01-11T13:08:25;26.00;;;16.00;;
18102;SDS011;9178;51.120;6.192;2024-01-11T13:10:52;28.33;;;16.47;;
18102;SDS011;9178;51.120;6.192;2024-01-11T13:13:19;25.17;;;15.13;;
18102;SDS011;9178;51.120;6.192;2024-01-11T13:15:46;27.07;;;15.00;;
18102;SDS011;9178;51.120;6.192;2024-01-11T13:18:13;29.27;;;16.17;;
18102;SDS011;9178;51.120;6.192;2024-01-11T13:20:41;28.30;;;15.73;;
18102;SDS011;9178;51.120;6.192;2024-01-11T13:23:13;29.40;;;15.97;;
18102;SDS011;9178;51.120;6.192;2024-01-11T13:25:41;26.83;;;14.80;;
18102;SDS011;9178;51.120;6.192;2024-01-11T13:28:12;24.83;;;15.47;;
18102;SDS011;9178;51.120;6.192;2024-01-11T13:30:39;28.40;;;16.77;;
18102;SDS011;9178;51.120;6.192;2024-01-11T13:33:08;28.60;;;16.97;;
18102;SDS011;9178;51.120;6.192;2024-01-11T13:35:36;38.50;;;21.40;;
18102;SDS011;9178;51.120;6.192;2024-01-11T13:38:04;30.93;;;18.53;;
18102;SDS011;9178;51.120;6.192;2024-01-11T13:40:35;36.87;;;20.00;;
18102;SDS011;9178;51.120;6.192;2024-01-11T13:43:05;40.70;;;23.53;;
18102;SDS011;9178;51.120;6.192;2024-01-11T13:45:32;38.30;;;21.77;;
18102;SDS011;9178;51.120;6.192;2024-01-11T13:48:10;30.57;;;18.23;;
18102;SDS011;9178;51.120;6.192;2024-01-11T13:50:37;36.40;;;19.80;;
18102;SDS011;9178;51.120;6.192;2024-01-11T13:53:04;22.70;;;14.17;;
18102;SDS011;9178;51.120;6.192;2024-01-11T13:55:35;34.47;;;19.67;;
18102;SDS011;9178;51.120;6.192;2024-01-11T13:58:06;32.47;;;16.60;;
18102;SDS011;9178;51.120;6.192;2024-01-11T14:00:33;29.93;;;18.40;;
18102;SDS011;9178;51.120;6.192;2024-01-11T14:03:01;23.63;;;14.73;;
18102;SDS011;9178;51.120;6.192;2024-01-11T14:05:30;22.73;;;14.23;;
18102;SDS011;9178;51.120;6.192;2024-01-11T14:07:57;21.93;;;13.60;;
18102;SDS011;9178;51.120;6.192;2024-01-11T14:10:26;24.50;;;14.57;;
18102;SDS011;9178;51.120;6.192;2024-01-11T14:12:56;26.50;;;14.93;;
18102;SDS011;9178;51.120;6.192;2024-01-11T14:15:27;22.17;;;14.27;;
18102;SDS011;9178;51.120;6.192;2024-01-11T14:17:57;25.90;;;15.47;;
18102;SDS011;9178;51.120;6.192;2024-01-11T14:20:28;21.73;;;14.07;;
18102;SDS011;9178;51.120;6.192;2024-01-11T14:22:56;24.30;;;14.70;;
18102;SDS011;9178;51.120;6.192;2024-01-11T14:25:26;22.73;;;13.57;;
18102;SDS011;9178;51.120;6.192;2024-01-11T14:27:54;22.03;;;13.70;;
18102;SDS011;9178;51.120;6.192;2024-01-11T14:30:24;25.10;;;14.10;;
18102;SDS011;9178;51.120;6.192;2024-01-11T14:32:51;24.43;;;15.40;;
18102;SDS011;9178;51.120;6.192;2024-01-11T14:35:21;21.97;;;12.83;;
18102;SDS011;9178;51.120;6.192;2024-01-11T14:37:52;27.27;;;13.97;;
18102;SDS011;9178;51.120;6.192;2024-01-11T14:40:19;26.70;;;14.33;;